sensor_id;sensor_type;location;lat;lon;timestamp;pressure;altitude;pressure_sealevel;temperature;humidity
31239;BME280;17871;31.584;74.450;2023-05-08T00:00:13;97867.34;;;24.99;51.52
31239;BME280;17871;31.584;74.450;2023-05-08T00:02:42;97866.69;;;24.95;51.55
31239;BME280;17871;31.584;74.450;2023-05-08T00:05:11;97860.81;;;24.92;51.92
31239;BME280;17871;31.584;74.450;2023-05-08T00:07:41;97860.81;;;24.92;52.22
31239;BME280;17871;31.584;74.450;2023-05-08T00:10:10;97853.25;;;24.71;51.47
31239;BME280;17871;31.584;74.450;2023-05-08T00:12:40;97859.63;;;24.82;51.53
31239;BME280;17871;31.584;74.450;2023-05-08T00:15:09;97866.75;;;24.64;51.49
31239;BME280;17871;31.584;74.450;2023-05-08T00:17:39;97871.66;;;24.54;51.74
31239;BME280;17871;31.584;74.450;2023-05-08T00:20:09;97876.03;;;24.69;51.75
31239;BME280;17871;31.584;74.450;2023-05-08T00:22:38;97880.53;;;24.52;51.88
31239;BME280;17871;31.584;74.450;2023-05-08T00:25:07;97871.50;;;24.57;52.21
31239;BME280;17871;31.584;74.450;2023-05-08T00:27:37;97866.66;;;24.36;51.85
31239;BME280;17871;31.584;74.450;2023-05-08T00:30:06;97864.84;;;24.52;52.12
31239;BME280;17871;31.584;74.450;2023-05-08T00:32:36;97863.78;;;24.40;52.17
31239;BME280;17871;31.584;74.450;2023-05-08T00:35:05;97867.53;;;24.50;51.79
31239;BME280;17871;31.584;74.450;2023-05-08T00:37:34;97868.59;;;24.32;51.77
31239;BME280;17871;31.584;74.450;2023-05-08T00:40:09;97863.25;;;24.49;51.58
31239;BME280;17871;31.584;74.450;2023-05-08T00:42:38;97867.91;;;24.44;51.40
31239;BME280;17871;31.584;74.450;2023-05-08T00:45:08;97863.28;;;24.34;51.55
31239;BME280;17871;31.584;74.450;2023-05-08T00:47:37;97858.72;;;24.53;51.80
31239;BME280;17871;31.584;74.450;2023-05-08T00:50:08;97860.25;;;24.41;51.49
31239;BME280;17871;31.584;74.450;2023-05-08T00:52:38;97858.41;;;24.43;51.10
31239;BME280;17871;31.584;74.450;2023-05-08T00:55:08;97850.59;;;24.57;51.32
31239;BME280;17871;31.584;74.450;2023-05-08T00:57:37;97858.34;;;24.59;51.24
31239;BME280;17871;31.584;74.450;2023-05-08T01:00:07;97856.63;;;24.28;51.80
31239;BME280;17871;31.584;74.450;2023-05-08T01:02:38;97858.78;;;24.51;51.48
31239;BME280;17871;31.584;74.450;2023-05-08T01:05:08;97860.69;;;24.63;51.53
31239;BME280;17871;31.584;74.450;2023-05-08T01:07:37;97863.25;;;24.49;51.64
31239;BME280;17871;31.584;74.450;2023-05-08T01:10:07;97869.75;;;24.11;52.70
31239;BME280;17871;31.584;74.450;2023-05-08T01:12:58;97864.78;;;24.53;52.52
31239;BME280;17871;31.584;74.450;2023-05-08T01:15:37;97858.22;;;24.46;52.52
31239;BME280;17871;31.584;74.450;2023-05-08T01:18:52;97873.56;;;24.37;52.86
31239;BME280;17871;31.584;74.450;2023-05-08T01:21:48;97868.19;;;24.24;52.69
31239;BME280;17871;31.584;74.450;2023-05-08T01:30:15;97871.00;;;24.51;53.33
31239;BME280;17871;31.584;74.450;2023-05-08T01:32:57;97868.94;;;24.26;52.97
31239;BME280;17871;31.584;74.450;2023-05-08T01:35:55;97868.06;;;24.41;53.09
31239;BME280;17871;31.584;74.450;2023-05-08T01:38:51;97871.91;;;24.65;53.26
31239;BME280;17871;31.584;74.450;2023-05-08T01:41:26;97873.72;;;24.34;53.67
31239;BME280;17871;31.584;74.450;2023-05-08T01:44:09;97867.97;;;24.58;53.43
31239;BME280;17871;31.584;74.450;2023-05-08T01:46:51;97864.78;;;24.53;52.80
31239;BME280;17871;31.584;74.450;2023-05-08T01:49:26;97863.53;;;24.74;52.74
31239;BME280;17871;31.584;74.450;2023-05-08T01:51:59;97878.69;;;24.84;52.21
31239;BME280;17871;31.584;74.450;2023-05-08T01:54:38;97875.31;;;24.82;52.01
31239;BME280;17871;31.584;74.450;2023-05-08T01:57:09;97880.38;;;24.85;51.91
31239;BME280;17871;31.584;74.450;2023-05-08T01:59:41;97869.56;;;24.91;52.40
31239;BME280;17871;31.584;74.450;2023-05-08T02:02:12;97877.03;;;24.83;51.89
31239;BME280;17871;31.584;74.450;2023-05-08T02:04:43;97881.06;;;24.88;51.56
31239;BME280;17871;31.584;74.450;2023-05-08T02:07:13;97886.69;;;25.10;51.33
31239;BME280;17871;31.584;74.450;2023-05-08T02:09:42;97887.78;;;25.06;50.73
31239;BME280;17871;31.584;74.450;2023-05-08T02:12:15;97883.56;;;24.90;51.01
31239;BME280;17871;31.584;74.450;2023-05-08T02:14:46;97891.06;;;25.10;50.58
31239;BME280;17871;31.584;74.450;2023-05-08T02:17:17;97883.91;;;25.27;50.59
31239;BME280;17871;31.584;74.450;2023-05-08T02:19:46;97890.22;;;25.53;50.10
31239;BME280;17871;31.584;74.450;2023-05-08T02:22:17;97883.44;;;25.49;49.26
31239;BME280;17871;31.584;74.450;2023-05-08T02:24:49;97881.91;;;25.61;48.50
31239;BME280;17871;31.584;74.450;2023-05-08T02:27:26;97880.19;;;25.74;48.28
31239;BME280;17871;31.584;74.450;2023-05-08T02:29:56;97871.50;;;25.59;48.24
31239;BME280;17871;31.584;74.450;2023-05-08T02:32:28;97867.75;;;25.92;48.37
31239;BME280;17871;31.584;74.450;2023-05-08T02:34:59;97868.81;;;25.75;48.72
31239;BME280;17871;31.584;74.450;2023-05-08T02:37:33;97875.75;;;26.03;48.75
31239;BME280;17871;31.584;74.450;2023-05-08T02:40:06;97869.81;;;25.87;47.94
31239;BME280;17871;31.584;74.450;2023-05-08T02:42:37;97870.16;;;25.95;48.04
31239;BME280;17871;31.584;74.450;2023-05-08T02:45:08;97868.09;;;26.41;47.76
31239;BME280;17871;31.584;74.450;2023-05-08T02:48:13;97873.09;;;26.31;46.58
31239;BME280;17871;31.584;74.450;2023-05-08T02:51:36;97875.03;;;26.54;46.71
31239;BME280;17871;31.584;74.450;2023-05-08T02:54:09;97866.22;;;26.82;46.69
31239;BME280;17871;31.584;74.450;2023-05-08T02:56:46;97868.44;;;27.01;47.79
31239;BME280;17871;31.584;74.450;2023-05-08T02:59:38;97870.25;;;27.13;46.90
31239;BME280;17871;31.584;74.450;2023-05-08T03:02:38;97875.81;;;27.08;46.02
31239;BME280;17871;31.584;74.450;2023-05-08T03:05:29;97868.28;;;27.16;44.41
31239;BME280;17871;31.584;74.450;2023-05-08T03:08:10;97875.38;;;27.27;45.56
31239;BME280;17871;31.584;74.450;2023-05-08T03:10:45;97872.03;;;27.25;45.02
31239;BME280;17871;31.584;74.450;2023-05-08T03:13:18;97870.47;;;27.35;43.68
31239;BME280;17871;31.584;74.450;2023-05-08T03:15:57;97863.75;;;27.44;43.16
31239;BME280;17871;31.584;74.450;2023-05-08T03:18:35;97871.09;;;27.64;43.57
31239;BME280;17871;31.584;74.450;2023-05-08T03:21:07;97868.69;;;27.48;42.54
31239;BME280;17871;31.584;74.450;2023-05-08T03:23:38;97872.66;;;27.41;42.01
31239;BME280;17871;31.584;74.450;2023-05-08T03:26:09;97879.69;;;27.78;42.20
31239;BME280;17871;31.584;74.450;2023-05-08T03:28:39;97884.84;;;27.67;42.60
31239;BME280;17871;31.584;74.450;2023-05-08T03:31:09;97889.84;;;27.96;42.52
31239;BME280;17871;31.584;74.450;2023-05-08T03:33:41;97883.28;;;28.14;41.98
31239;BME280;17871;31.584;74.450;2023-05-08T03:36:11;97880.97;;;28.22;42.45
31239;BME280;17871;31.584;74.450;2023-05-08T03:38:41;97885.88;;;28.50;42.93
31239;BME280;17871;31.584;74.450;2023-05-08T03:41:11;97898.22;;;28.01;40.99
31239;BME280;17871;31.584;74.450;2023-05-08T03:43:40;97892.75;;;28.16;41.17
31239;BME280;17871;31.584;74.450;2023-05-08T03:46:10;97899.75;;;28.52;41.74
31239;BME280;17871;31.584;74.450;2023-05-08T03:48:40;97896.03;;;28.67;41.50
31239;BME280;17871;31.584;74.450;2023-05-08T03:51:11;97905.69;;;29.02;41.67
31239;BME280;17871;31.584;74.450;2023-05-08T03:53:40;97905.13;;;29.09;41.02
31239;BME280;17871;31.584;74.450;2023-05-08T03:56:09;97903.44;;;28.97;40.43
31239;BME280;17871;31.584;74.450;2023-05-08T04:01:47;97907.91;;;29.08;39.38
31239;BME280;17871;31.584;74.450;2023-05-08T04:04:21;97910.09;;;28.90;39.52
31239;BME280;17871;31.584;74.450;2023-05-08T04:07:26;97916.38;;;29.46;39.99
31239;BME280;17871;31.584;74.450;2023-05-08T04:10:11;97915.34;;;29.25;39.16
31239;BME280;17871;31.584;74.450;2023-05-08T04:12:53;97912.75;;;29.36;38.15
31239;BME280;17871;31.584;74.450;2023-05-08T04:15:28;97928.94;;;29.54;38.55
31239;BME280;17871;31.584;74.450;2023-05-08T04:18:05;97927.16;;;29.65;37.38
31239;BME280;17871;31.584;74.450;2023-05-08T04:20:39;97928.50;;;29.93;37.66
31239;BME280;17871;31.584;74.450;2023-05-08T04:23:14;97928.16;;;29.87;37.84
31239;BME280;17871;31.584;74.450;2023-05-08T04:25:46;97930.38;;;30.35;38.24
31239;BME280;17871;31.584;74.450;2023-05-08T04:28:17;97931.00;;;30.06;38.98
31239;BME280;17871;31.584;74.450;2023-05-08T04:30:51;97934.13;;;30.00;39.03
31239;BME280;17871;31.584;74.450;2023-05-08T04:33:20;97923.47;;;30.12;39.68
31239;BME280;17871;31.584;74.450;2023-05-08T04:35:50;97934.03;;;29.90;39.85
31239;BME280;17871;31.584;74.450;2023-05-08T04:38:19;97920.66;;;30.36;40.26
31239;BME280;17871;31.584;74.450;2023-05-08T04:40:48;97920.06;;;30.21;38.95
31239;BME280;17871;31.584;74.450;2023-05-08T04:43:18;97922.81;;;30.31;39.07
31239;BME280;17871;31.584;74.450;2023-05-08T04:45:47;97919.19;;;30.54;38.45
31239;BME280;17871;31.584;74.450;2023-05-08T04:48:16;97918.44;;;30.63;37.29
31239;BME280;17871;31.584;74.450;2023-05-08T04:50:46;97926.28;;;30.85;38.35
31239;BME280;17871;31.584;74.450;2023-05-08T04:53:15;97920.91;;;31.08;38.21
31239;BME280;17871;31.584;74.450;2023-05-08T04:55:44;97927.34;;;31.35;38.26
31239;BME280;17871;31.584;74.450;2023-05-08T04:58:13;97924.47;;;31.18;35.77
31239;BME280;17871;31.584;74.450;2023-05-08T05:00:43;97920.94;;;31.28;36.81
31239;BME280;17871;31.584;74.450;2023-05-08T05:03:12;97920.31;;;31.46;36.68
31239;BME280;17871;31.584;74.450;2023-05-08T05:05:42;97916.13;;;31.43;35.23
31239;BME280;17871;31.584;74.450;2023-05-08T05:08:12;97925.69;;;31.55;34.74
31239;BME280;17871;31.584;74.450;2023-05-08T05:10:41;97918.81;;;32.04;35.52
31239;BME280;17871;31.584;74.450;2023-05-08T05:13:10;97931.84;;;32.26;34.28
31239;BME280;17871;31.584;74.450;2023-05-08T05:15:41;97933.91;;;32.13;33.06
31239;BME280;17871;31.584;74.450;2023-05-08T05:18:12;97925.78;;;32.05;32.79
31239;BME280;17871;31.584;74.450;2023-05-08T05:20:42;97929.38;;;32.04;32.24
31239;BME280;17871;31.584;74.450;2023-05-08T05:23:12;97929.69;;;32.50;33.57
31239;BME280;17871;31.584;74.450;2023-05-08T05:25:41;97924.56;;;32.77;33.78
31239;BME280;17871;31.584;74.450;2023-05-08T05:28:13;97927.91;;;32.89;33.36
31239;BME280;17871;31.584;74.450;2023-05-08T05:30:46;97930.56;;;32.99;33.28
31239;BME280;17871;31.584;74.450;2023-05-08T05:33:16;97931.69;;;33.25;34.27
31239;BME280;17871;31.584;74.450;2023-05-08T05:35:46;97936.25;;;33.23;32.38
31239;BME280;17871;31.584;74.450;2023-05-08T05:38:14;97938.63;;;33.45;32.73
31239;BME280;17871;31.584;74.450;2023-05-08T05:40:44;97937.34;;;33.49;31.33
31239;BME280;17871;31.584;74.450;2023-05-08T05:43:13;97933.56;;;33.52;32.51
31239;BME280;17871;31.584;74.450;2023-05-08T05:45:42;97927.88;;;33.37;31.09
31239;BME280;17871;31.584;74.450;2023-05-08T05:48:11;97927.91;;;33.27;31.97
31239;BME280;17871;31.584;74.450;2023-05-08T05:50:40;97932.63;;;33.05;31.07
31239;BME280;17871;31.584;74.450;2023-05-08T05:53:09;97928.88;;;33.82;31.83
31239;BME280;17871;31.584;74.450;2023-05-08T05:55:39;97923.56;;;33.82;32.21
31239;BME280;17871;31.584;74.450;2023-05-08T05:58:08;97932.81;;;33.78;30.94
31239;BME280;17871;31.584;74.450;2023-05-08T06:00:44;97930.59;;;33.74;31.27
31239;BME280;17871;31.584;74.450;2023-05-08T06:03:13;97930.22;;;33.96;31.81
31239;BME280;17871;31.584;74.450;2023-05-08T06:05:43;97924.31;;;34.02;31.70
31239;BME280;17871;31.584;74.450;2023-05-08T06:08:14;97931.88;;;33.70;30.96
31239;BME280;17871;31.584;74.450;2023-05-08T06:10:45;97928.38;;;34.33;32.21
31239;BME280;17871;31.584;74.450;2023-05-08T06:13:14;97922.91;;;34.62;32.08
31239;BME280;17871;31.584;74.450;2023-05-08T06:15:44;97938.22;;;34.68;31.06
31239;BME280;17871;31.584;74.450;2023-05-08T06:18:13;97934.31;;;34.27;31.94
31239;BME280;17871;31.584;74.450;2023-05-08T06:20:43;97936.25;;;34.25;31.30
31239;BME280;17871;31.584;74.450;2023-05-08T06:23:12;97936.88;;;34.64;31.29
31239;BME280;17871;31.584;74.450;2023-05-08T06:25:41;97932.63;;;34.71;31.52
31239;BME280;17871;31.584;74.450;2023-05-08T06:28:11;97933.16;;;34.30;30.30
31239;BME280;17871;31.584;74.450;2023-05-08T06:30:40;97935.69;;;34.31;30.41
31239;BME280;17871;31.584;74.450;2023-05-08T06:33:09;97938.56;;;34.56;31.26
31239;BME280;17871;31.584;74.450;2023-05-08T06:35:44;97932.56;;;34.81;31.10
31239;BME280;17871;31.584;74.450;2023-05-08T06:38:14;97934.13;;;34.91;30.82
31239;BME280;17871;31.584;74.450;2023-05-08T06:40:44;97923.81;;;35.24;32.07
31239;BME280;17871;31.584;74.450;2023-05-08T06:43:13;97932.88;;;35.13;30.90
31239;BME280;17871;31.584;74.450;2023-05-08T06:45:43;97936.28;;;35.23;31.28
31239;BME280;17871;31.584;74.450;2023-05-08T06:48:13;97928.00;;;35.26;29.42
31239;BME280;17871;31.584;74.450;2023-05-08T06:50:42;97922.63;;;35.44;30.22
31239;BME280;17871;31.584;74.450;2023-05-08T06:53:11;97928.94;;;35.43;29.66
31239;BME280;17871;31.584;74.450;2023-05-08T06:55:43;97920.69;;;35.54;30.27
31239;BME280;17871;31.584;74.450;2023-05-08T06:58:12;97926.84;;;35.80;28.82
31239;BME280;17871;31.584;74.450;2023-05-08T07:00:42;97923.88;;;35.32;30.25
31239;BME280;17871;31.584;74.450;2023-05-08T07:06:26;97923.09;;;35.14;29.68
31239;BME280;17871;31.584;74.450;2023-05-08T07:08:55;97911.06;;;35.10;29.94
31239;BME280;17871;31.584;74.450;2023-05-08T07:11:25;97915.63;;;34.82;29.17
31239;BME280;17871;31.584;74.450;2023-05-08T07:13:54;97916.50;;;34.37;29.64
31239;BME280;17871;31.584;74.450;2023-05-08T07:16:23;97894.97;;;34.58;30.55
31239;BME280;17871;31.584;74.450;2023-05-08T07:18:52;97909.03;;;34.86;29.87
31239;BME280;17871;31.584;74.450;2023-05-08T07:21:21;97907.56;;;34.56;30.03
31239;BME280;17871;31.584;74.450;2023-05-08T07:23:50;97905.16;;;35.16;29.59
31239;BME280;17871;31.584;74.450;2023-05-08T07:26:21;97906.56;;;35.54;28.86
31239;BME280;17871;31.584;74.450;2023-05-08T07:28:50;97891.72;;;35.43;28.73
31239;BME280;17871;31.584;74.450;2023-05-08T07:31:21;97895.56;;;35.74;27.53
31239;BME280;17871;31.584;74.450;2023-05-08T07:33:51;97902.50;;;35.67;28.28
31239;BME280;17871;31.584;74.450;2023-05-08T07:36:20;97894.31;;;35.35;27.59
31239;BME280;17871;31.584;74.450;2023-05-08T07:38:50;97894.75;;;35.74;28.73
31239;BME280;17871;31.584;74.450;2023-05-08T07:41:19;97896.22;;;35.68;28.22
31239;BME280;17871;31.584;74.450;2023-05-08T07:43:48;97886.16;;;35.88;28.20
31239;BME280;17871;31.584;74.450;2023-05-08T07:46:17;97890.56;;;36.05;28.42
31239;BME280;17871;31.584;74.450;2023-05-08T07:48:47;97894.59;;;36.09;27.31
31239;BME280;17871;31.584;74.450;2023-05-08T07:51:16;97900.06;;;36.08;26.98
31239;BME280;17871;31.584;74.450;2023-05-08T07:53:45;97896.72;;;36.06;26.56
31239;BME280;17871;31.584;74.450;2023-05-08T07:56:16;97899.38;;;36.06;27.05
31239;BME280;17871;31.584;74.450;2023-05-08T07:58:45;97903.56;;;35.74;25.63
31239;BME280;17871;31.584;74.450;2023-05-08T08:01:15;97898.53;;;36.05;25.02
31239;BME280;17871;31.584;74.450;2023-05-08T08:03:45;97895.50;;;36.26;25.80
31239;BME280;17871;31.584;74.450;2023-05-08T08:06:15;97897.09;;;36.11;26.05
31239;BME280;17871;31.584;74.450;2023-05-08T08:08:45;97885.84;;;36.33;26.44
31239;BME280;17871;31.584;74.450;2023-05-08T08:11:14;97890.38;;;36.49;27.02
31239;BME280;17871;31.584;74.450;2023-05-08T08:13:43;97884.84;;;36.26;26.65
31239;BME280;17871;31.584;74.450;2023-05-08T08:16:13;97889.34;;;36.33;25.94
31239;BME280;17871;31.584;74.450;2023-05-08T08:18:42;97883.50;;;36.22;25.73
31239;BME280;17871;31.584;74.450;2023-05-08T08:21:11;97885.03;;;36.32;26.28
31239;BME280;17871;31.584;74.450;2023-05-08T08:23:40;97886.81;;;36.16;25.71
31239;BME280;17871;31.584;74.450;2023-05-08T08:26:09;97880.00;;;36.29;26.74
31239;BME280;17871;31.584;74.450;2023-05-08T08:28:38;97883.19;;;36.41;25.88
31239;BME280;17871;31.584;74.450;2023-05-08T08:31:07;97874.63;;;36.55;25.98
31239;BME280;17871;31.584;74.450;2023-05-08T08:33:36;97868.63;;;36.85;25.42
31239;BME280;17871;31.584;74.450;2023-05-08T08:36:12;97865.78;;;36.63;24.70
31239;BME280;17871;31.584;74.450;2023-05-08T08:38:41;97879.94;;;36.71;25.38
31239;BME280;17871;31.584;74.450;2023-05-08T08:41:13;97860.94;;;36.99;26.15
31239;BME280;17871;31.584;74.450;2023-05-08T08:43:43;97866.44;;;36.73;24.93
31239;BME280;17871;31.584;74.450;2023-05-08T08:46:13;97864.22;;;36.36;25.39
31239;BME280;17871;31.584;74.450;2023-05-08T08:48:46;97852.44;;;36.38;25.61
31239;BME280;17871;31.584;74.450;2023-05-08T08:51:27;97860.91;;;36.42;25.19
31239;BME280;17871;31.584;74.450;2023-05-08T08:54:10;97861.38;;;36.29;25.92
31239;BME280;17871;31.584;74.450;2023-05-08T08:56:41;97856.22;;;36.28;25.97
31239;BME280;17871;31.584;74.450;2023-05-08T08:59:15;97863.53;;;36.18;25.26
31239;BME280;17871;31.584;74.450;2023-05-08T09:01:47;97864.44;;;36.01;25.72
31239;BME280;17871;31.584;74.450;2023-05-08T09:04:19;97854.38;;;35.86;26.10
31239;BME280;17871;31.584;74.450;2023-05-08T09:06:48;97860.09;;;35.91;25.87
31239;BME280;17871;31.584;74.450;2023-05-08T09:09:18;97860.88;;;36.26;25.58
31239;BME280;17871;31.584;74.450;2023-05-08T09:11:50;97857.53;;;36.16;26.30
31239;BME280;17871;31.584;74.450;2023-05-08T09:14:20;97858.84;;;36.12;26.58
31239;BME280;17871;31.584;74.450;2023-05-08T09:16:49;97862.97;;;36.06;25.86
31239;BME280;17871;31.584;74.450;2023-05-08T09:19:18;97859.19;;;36.17;25.84
31239;BME280;17871;31.584;74.450;2023-05-08T09:21:52;97851.75;;;36.28;26.43
31239;BME280;17871;31.584;74.450;2023-05-08T09:24:21;97849.03;;;36.12;26.93
31239;BME280;17871;31.584;74.450;2023-05-08T09:26:51;97849.94;;;35.95;26.35
31239;BME280;17871;31.584;74.450;2023-05-08T09:29:23;97853.22;;;35.81;26.62
31239;BME280;17871;31.584;74.450;2023-05-08T09:31:53;97844.00;;;35.67;26.13
31239;BME280;17871;31.584;74.450;2023-05-08T09:34:27;97848.91;;;35.54;25.50
31239;BME280;17871;31.584;74.450;2023-05-08T09:39:38;97842.59;;;35.55;25.68
31239;BME280;17871;31.584;74.450;2023-05-08T09:42:13;97842.00;;;35.61;25.90
31239;BME280;17871;31.584;74.450;2023-05-08T09:47:20;97841.72;;;35.72;27.84
31239;BME280;17871;31.584;74.450;2023-05-08T09:50:02;97825.72;;;35.64;26.63
31239;BME280;17871;31.584;74.450;2023-05-08T09:52:33;97832.22;;;35.36;26.57
31239;BME280;17871;31.584;74.450;2023-05-08T09:55:04;97832.28;;;35.52;27.83
31239;BME280;17871;31.584;74.450;2023-05-08T09:57:36;97830.72;;;35.41;27.05
31239;BME280;17871;31.584;74.450;2023-05-08T10:00:12;97833.16;;;35.27;26.63
31239;BME280;17871;31.584;74.450;2023-05-08T10:03:01;97824.47;;;35.17;27.08
31239;BME280;17871;31.584;74.450;2023-05-08T10:05:32;97833.94;;;35.02;27.90
31239;BME280;17871;31.584;74.450;2023-05-08T10:10:47;97832.84;;;34.86;28.63
31239;BME280;17871;31.584;74.450;2023-05-08T10:13:16;97824.03;;;34.86;27.82
31239;BME280;17871;31.584;74.450;2023-05-08T10:15:51;97822.97;;;34.97;28.17
31239;BME280;17871;31.584;74.450;2023-05-08T10:18:23;97826.16;;;35.00;28.05
31239;BME280;17871;31.584;74.450;2023-05-08T10:20:56;97830.50;;;34.83;26.97
31239;BME280;17871;31.584;74.450;2023-05-08T10:23:28;97815.56;;;34.82;26.48
31239;BME280;17871;31.584;74.450;2023-05-08T10:26:07;97832.69;;;34.88;26.09
31239;BME280;17871;31.584;74.450;2023-05-08T10:28:57;97815.56;;;34.82;25.59
31239;BME280;17871;31.584;74.450;2023-05-08T10:31:34;97816.28;;;34.92;25.70
31239;BME280;17871;31.584;74.450;2023-05-08T10:34:04;97813.56;;;34.84;25.15
31239;BME280;17871;31.584;74.450;2023-05-08T10:36:34;97811.84;;;34.75;25.51
31239;BME280;17871;31.584;74.450;2023-05-08T10:39:05;97805.59;;;34.84;27.15
31239;BME280;17871;31.584;74.450;2023-05-08T10:41:35;97808.25;;;34.84;26.59
31239;BME280;17871;31.584;74.450;2023-05-08T10:44:05;97816.31;;;34.75;25.85
31239;BME280;17871;31.584;74.450;2023-05-08T10:46:54;97815.72;;;34.81;26.47
31239;BME280;17871;31.584;74.450;2023-05-08T10:49:55;97808.44;;;34.65;26.08
31239;BME280;17871;31.584;74.450;2023-05-08T10:52:42;97812.16;;;34.72;26.75
31239;BME280;17871;31.584;74.450;2023-05-08T10:55:30;97813.00;;;34.73;26.45
31239;BME280;17871;31.584;74.450;2023-05-08T10:58:14;97812.69;;;34.76;27.29
31239;BME280;17871;31.584;74.450;2023-05-08T11:03:29;97807.16;;;34.69;27.33
31239;BME280;17871;31.584;74.450;2023-05-08T11:06:00;97805.78;;;34.65;26.71
31239;BME280;17871;31.584;74.450;2023-05-08T11:08:30;97800.22;;;34.59;26.85
31239;BME280;17871;31.584;74.450;2023-05-08T11:16:04;97795.19;;;34.30;28.13
31239;BME280;17871;31.584;74.450;2023-05-08T11:22:11;97793.81;;;34.26;27.97
31239;BME280;17871;31.584;74.450;2023-05-08T11:24:55;97795.41;;;34.36;28.22
31239;BME280;17871;31.584;74.450;2023-05-08T11:27:33;97790.84;;;34.29;28.68
31239;BME280;17871;31.584;74.450;2023-05-08T11:35:51;97786.53;;;34.28;28.68
31239;BME280;17871;31.584;74.450;2023-05-08T11:38:33;97792.16;;;34.25;29.01
31239;BME280;17871;31.584;74.450;2023-05-08T11:41:08;97789.47;;;34.07;28.33
31239;BME280;17871;31.584;74.450;2023-05-08T11:46:16;97793.47;;;33.94;26.74
31239;BME280;17871;31.584;74.450;2023-05-08T11:48:47;97792.25;;;33.88;27.17
31239;BME280;17871;31.584;74.450;2023-05-08T11:51:17;97801.41;;;33.94;27.22
31239;BME280;17871;31.584;74.450;2023-05-08T11:53:48;97793.31;;;33.95;27.20
31239;BME280;17871;31.584;74.450;2023-05-08T11:56:17;97793.59;;;33.92;26.83
31239;BME280;17871;31.584;74.450;2023-05-08T11:58:46;97795.75;;;33.88;27.79
31239;BME280;17871;31.584;74.450;2023-05-08T12:01:21;97790.38;;;33.98;27.93
31239;BME280;17871;31.584;74.450;2023-05-08T12:03:59;97786.88;;;33.98;27.91
31239;BME280;17871;31.584;74.450;2023-05-08T12:06:29;97793.91;;;33.89;27.80
31239;BME280;17871;31.584;74.450;2023-05-08T12:09:02;97792.75;;;33.74;28.59
31239;BME280;17871;31.584;74.450;2023-05-08T12:11:33;97797.13;;;33.65;28.58
31239;BME280;17871;31.584;74.450;2023-05-08T12:14:01;97790.75;;;33.76;28.64
31239;BME280;17871;31.584;74.450;2023-05-08T12:16:37;97793.03;;;33.71;27.62
31239;BME280;17871;31.584;74.450;2023-05-08T12:19:12;97801.75;;;33.54;28.17
31239;BME280;17871;31.584;74.450;2023-05-08T12:21:48;97798.66;;;33.58;29.07
31239;BME280;17871;31.584;74.450;2023-05-08T12:24:17;97794.38;;;33.48;28.98
31239;BME280;17871;31.584;74.450;2023-05-08T12:26:53;97790.66;;;33.40;29.36
31239;BME280;17871;31.584;74.450;2023-05-08T12:29:25;97795.59;;;33.26;28.64
31239;BME280;17871;31.584;74.450;2023-05-08T12:31:54;97801.34;;;33.12;29.25
31239;BME280;17871;31.584;74.450;2023-05-08T12:34:24;97804.69;;;33.14;29.33
31239;BME280;17871;31.584;74.450;2023-05-08T12:37:03;97805.22;;;33.17;28.90
31239;BME280;17871;31.584;74.450;2023-05-08T12:39:35;97805.81;;;33.02;28.31
31239;BME280;17871;31.584;74.450;2023-05-08T12:42:05;97799.69;;;32.92;28.97
31239;BME280;17871;31.584;74.450;2023-05-08T12:44:34;97799.69;;;32.92;29.28
31239;BME280;17871;31.584;74.450;2023-05-08T12:47:03;97804.59;;;32.86;29.59
31239;BME280;17871;31.584;74.450;2023-05-08T12:49:33;97807.94;;;32.88;29.15
31239;BME280;17871;31.584;74.450;2023-05-08T12:52:07;97815.59;;;32.82;29.12
31239;BME280;17871;31.584;74.450;2023-05-08T12:54:45;97813.25;;;32.79;29.73
31239;BME280;17871;31.584;74.450;2023-05-08T12:57:17;97815.34;;;32.56;29.43
31239;BME280;17871;31.584;74.450;2023-05-08T12:59:47;97812.13;;;32.53;30.14
31239;BME280;17871;31.584;74.450;2023-05-08T13:02:20;97820.09;;;32.62;29.88
31239;BME280;17871;31.584;74.450;2023-05-08T13:04:54;97816.59;;;32.43;30.49
31239;BME280;17871;31.584;74.450;2023-05-08T13:07:23;97823.69;;;32.52;30.63
31239;BME280;17871;31.584;74.450;2023-05-08T13:09:59;97833.44;;;32.32;30.94
31239;BME280;17871;31.584;74.450;2023-05-08T13:12:31;97835.09;;;32.23;31.19
31239;BME280;17871;31.584;74.450;2023-05-08T13:15:01;97834.94;;;32.15;31.29
31239;BME280;17871;31.584;74.450;2023-05-08T13:17:32;97847.03;;;32.08;31.32
31239;BME280;17871;31.584;74.450;2023-05-08T13:20:01;97850.06;;;32.04;31.52
31239;BME280;17871;31.584;74.450;2023-05-08T13:22:33;97847.31;;;32.05;32.17
31239;BME280;17871;31.584;74.450;2023-05-08T13:25:01;97856.28;;;31.83;31.82
31239;BME280;17871;31.584;74.450;2023-05-08T13:27:31;97860.47;;;31.96;31.97
31239;BME280;17871;31.584;74.450;2023-05-08T13:30:00;97859.19;;;31.80;32.11
31239;BME280;17871;31.584;74.450;2023-05-08T13:32:29;97865.00;;;31.74;32.19
31239;BME280;17871;31.584;74.450;2023-05-08T13:34:58;97858.41;;;31.59;32.21
31239;BME280;17871;31.584;74.450;2023-05-08T13:37:28;97863.69;;;31.59;32.59
31239;BME280;17871;31.584;74.450;2023-05-08T13:39:57;97866.88;;;31.53;32.72
31239;BME280;17871;31.584;74.450;2023-05-08T13:42:26;97870.53;;;31.41;32.62
31239;BME280;17871;31.584;74.450;2023-05-08T13:44:55;97867.16;;;31.39;32.38
31239;BME280;17871;31.584;74.450;2023-05-08T13:47:24;97877.47;;;31.42;32.92
31239;BME280;17871;31.584;74.450;2023-05-08T13:49:53;97871.28;;;31.32;32.26
31239;BME280;17871;31.584;74.450;2023-05-08T13:52:23;97890.31;;;31.26;32.36
31239;BME280;17871;31.584;74.450;2023-05-08T13:54:53;97887.34;;;31.19;32.08
31239;BME280;17871;31.584;74.450;2023-05-08T13:57:52;97890.31;;;31.26;31.63